Bluefin — WDE9397 — position and weather

sailwx.info

Track history (hours):
 
Tides and Currents Weather Stations Pressure Air Temp Water Temp Dewpoint Dewpoint Depression Visibility Wind Speed Wind Dir Waves Ship Positions

Bluefin

More information available from US FCC via Universal Licensing System and Coast Guard Vessel Documentation Center.

Last reported at 2014-Sep-22 03:27 UTC. Time now 2014-Sep-23 20:20 UTC.
Position N 39°52' W 075°13'.

Length 166 m; draft 7.6 m.

Type: Towing. MMSI: 367416750.

Date/timePositionNaut miles runAvg speedWind from/ knotsBaromVisibWave heightAir tempDewpointWater temp
2014-Sep-22 03:27N 39°52' W 075°13'0 0.0
2014-Sep-22 01:22N 39°52' W 075°13'0 0.0
2014-Sep-22 00:32N 39°52' W 075°13'0 0.0
2014-Sep-21 17:24N 39°52' W 075°13'0 0.0
2014-Sep-21 16:24N 39°52' W 075°13'0 0.0
2014-Sep-21 14:29N 39°52' W 075°13'0 0.0
2014-Sep-21 13:30N 39°52' W 075°13'0 0.0
2014-Sep-21 12:32N 39°52' W 075°13'54 2.7
2014-Sep-20 16:21N 39°12' W 074°26'910.5
2014-Sep-20 15:32N 39°19' W 074°19'1010.4
2014-Sep-20 14:33N 39°28' W 074°11'1010.4
2014-Sep-20 13:33N 39°37' W 074°05'1010.4
2014-Sep-20 12:33N 39°46' W 073°59'2110.4
2014-Sep-20 10:31N 40°07' W 073°56'1010.6
2014-Sep-20 09:32N 40°17' W 073°54'1010.4
2014-Sep-20 08:33N 40°27' W 073°53'9 9.3
2014-Sep-20 07:33N 40°34' W 074°02'2511.9
2014-Sep-20 05:26N 40°59' W 073°54'1410.9
2014-Sep-20 04:09N 41°12' W 073°57'25 0.7
2014-Sep-18 14:32N 40°47' W 073°59'9 8.6
2014-Sep-18 13:31N 40°39' W 074°03'6 6.6
2014-Sep-18 12:33N 40°33' W 074°01'9 8.6
2014-Sep-18 11:33N 40°27' W 073°53'2210.2
2014-Sep-18 09:27N 40°05' W 073°56'910.2
2014-Sep-18 08:33N 39°56' W 073°57'1010.4
2014-Sep-18 07:33N 39°46' W 073°59'1110.4
2014-Sep-18 06:33N 39°37' W 074°05'55 3.2
2014-Sep-17 13:21N 39°51' W 075°14'0 0.0
2014-Sep-16 14:20N 39°51' W 075°14'55 6.7
2014-Sep-16 06:07N 39°19' W 076°12'711.8
2014-Sep-16 05:33N 39°13' W 076°15'1010.4
2014-Sep-16 04:33N 39°03' W 076°20'1412.0
2014-Sep-16 03:24N 38°50' W 076°26'9011.4
2014-Sep-15 19:30N 37°21' W 076°08'1211.8
2014-Sep-15 18:31N 37°09' W 076°10'9 9.6
2014-Sep-15 17:33N 37°00' W 076°12'11 8.1
2014-Sep-15 16:10N 36°58' W 076°25'0 0.2
2014-Sep-15 15:34N 36°58' W 076°25'0 0.0
2014-Sep-15 14:22N 36°58' W 076°25'0 0.0
2014-Sep-15 13:33N 36°58' W 076°25'0 0.0
2014-Sep-15 12:29N 36°58' W 076°25'0 0.0
2014-Sep-15 11:06N 36°58' W 076°25'0 0.0
2014-Sep-15 10:32N 36°58' W 076°25'0 0.0
2014-Sep-15 09:32N 36°58' W 076°25'0 0.0
2014-Sep-15 08:31N 36°58' W 076°25'0 0.0
2014-Sep-15 07:32N 36°58' W 076°25'0 0.0
2014-Sep-15 06:33N 36°58' W 076°25'0 0.0
2014-Sep-15 05:33N 36°58' W 076°25'0 0.0
2014-Sep-15 04:31N 36°58' W 076°25'0 0.0
2014-Sep-15 03:33N 36°58' W 076°25'3 2.6
2014-Sep-15 02:33N 36°58' W 076°22'6 6.0
2014-Sep-15 01:33N 37°01' W 076°15'7 6.6
2014-Sep-15 00:32N 36°59' W 076°07'4 4.1
2014-Sep-14 23:33N 37°01' W 076°03'11110.1
2014-Sep-14 12:33N 38°51' W 076°26'1110.9
2014-Sep-14 11:33N 39°02' W 076°23'1010.2
2014-Sep-14 10:33N 39°11' W 076°28'6 6.2
2014-Sep-14 09:33N 39°15' W 076°34'0 0.0
2014-Sep-14 08:33N 39°15' W 076°34'0 0.0
2014-Sep-14 07:33N 39°15' W 076°34'0 0.0
2014-Sep-14 06:33N 39°15' W 076°34'0 0.0
2014-Sep-14 05:33N 39°15' W 076°34'0 0.0
2014-Sep-14 04:33N 39°15' W 076°34'0 0.0
2014-Sep-14 03:33N 39°15' W 076°34'0 0.0
2014-Sep-14 02:33N 39°15' W 076°34'0 0.0
2014-Sep-14 01:33N 39°15' W 076°34'3 0.7
2014-Sep-13 21:34N 39°13' W 076°32'9 9.2
2014-Sep-13 20:33N 39°09' W 076°21'  
Track history (hours):
 
Tides and Currents Weather Stations Pressure Air Temp Water Temp Dewpoint Dewpoint Depression Visibility Wind Speed Wind Dir Waves Ship Positions

Bluefin

More information available from US FCC via Universal Licensing System and Coast Guard Vessel Documentation Center.

Last reported at 2014-Sep-22 03:27 UTC. Time now 2014-Sep-23 20:20 UTC.
Position N 39°52' W 075°13'.

Length 166 m; draft 7.6 m.

Type: Towing. MMSI: 367416750.

Date/timePositionNaut miles runAvg speedWind from/ knotsBaromVisibWave heightAir tempDewpointWater temp
2014-Sep-22 03:27N 39°52' W 075°13'0 0.0
2014-Sep-22 01:22N 39°52' W 075°13'0 0.0
2014-Sep-22 00:32N 39°52' W 075°13'0 0.0
2014-Sep-21 17:24N 39°52' W 075°13'0 0.0
2014-Sep-21 16:24N 39°52' W 075°13'0 0.0
2014-Sep-21 14:29N 39°52' W 075°13'0 0.0
2014-Sep-21 13:30N 39°52' W 075°13'0 0.0
2014-Sep-21 12:32N 39°52' W 075°13'54 2.7
2014-Sep-20 16:21N 39°12' W 074°26'910.5
2014-Sep-20 15:32N 39°19' W 074°19'1010.4
2014-Sep-20 14:33N 39°28' W 074°11'1010.4
2014-Sep-20 13:33N 39°37' W 074°05'1010.4
2014-Sep-20 12:33N 39°46' W 073°59'2110.4
2014-Sep-20 10:31N 40°07' W 073°56'1010.6
2014-Sep-20 09:32N 40°17' W 073°54'1010.4
2014-Sep-20 08:33N 40°27' W 073°53'9 9.3
2014-Sep-20 07:33N 40°34' W 074°02'2511.9
2014-Sep-20 05:26N 40°59' W 073°54'1410.9
2014-Sep-20 04:09N 41°12' W 073°57'25 0.7
2014-Sep-18 14:32N 40°47' W 073°59'9 8.6
2014-Sep-18 13:31N 40°39' W 074°03'6 6.6
2014-Sep-18 12:33N 40°33' W 074°01'9 8.6
2014-Sep-18 11:33N 40°27' W 073°53'2210.2
2014-Sep-18 09:27N 40°05' W 073°56'910.2
2014-Sep-18 08:33N 39°56' W 073°57'1010.4
2014-Sep-18 07:33N 39°46' W 073°59'1110.4
2014-Sep-18 06:33N 39°37' W 074°05'55 3.2
2014-Sep-17 13:21N 39°51' W 075°14'0 0.0
2014-Sep-16 14:20N 39°51' W 075°14'55 6.7
2014-Sep-16 06:07N 39°19' W 076°12'711.8
2014-Sep-16 05:33N 39°13' W 076°15'1010.4
2014-Sep-16 04:33N 39°03' W 076°20'1412.0
2014-Sep-16 03:24N 38°50' W 076°26'9011.4
2014-Sep-15 19:30N 37°21' W 076°08'1211.8
2014-Sep-15 18:31N 37°09' W 076°10'9 9.6
2014-Sep-15 17:33N 37°00' W 076°12'11 8.1
2014-Sep-15 16:10N 36°58' W 076°25'0 0.2
2014-Sep-15 15:34N 36°58' W 076°25'0 0.0
2014-Sep-15 14:22N 36°58' W 076°25'0 0.0
2014-Sep-15 13:33N 36°58' W 076°25'0 0.0
2014-Sep-15 12:29N 36°58' W 076°25'0 0.0
2014-Sep-15 11:06N 36°58' W 076°25'0 0.0
2014-Sep-15 10:32N 36°58' W 076°25'0 0.0
2014-Sep-15 09:32N 36°58' W 076°25'0 0.0
2014-Sep-15 08:31N 36°58' W 076°25'0 0.0
2014-Sep-15 07:32N 36°58' W 076°25'0 0.0
2014-Sep-15 06:33N 36°58' W 076°25'0 0.0
2014-Sep-15 05:33N 36°58' W 076°25'0 0.0
2014-Sep-15 04:31N 36°58' W 076°25'0 0.0
2014-Sep-15 03:33N 36°58' W 076°25'3 2.6
2014-Sep-15 02:33N 36°58' W 076°22'6 6.0
2014-Sep-15 01:33N 37°01' W 076°15'7 6.6
2014-Sep-15 00:32N 36°59' W 076°07'4 4.1
2014-Sep-14 23:33N 37°01' W 076°03'11110.1
2014-Sep-14 12:33N 38°51' W 076°26'1110.9
2014-Sep-14 11:33N 39°02' W 076°23'1010.2
2014-Sep-14 10:33N 39°11' W 076°28'6 6.2
2014-Sep-14 09:33N 39°15' W 076°34'0 0.0
2014-Sep-14 08:33N 39°15' W 076°34'0 0.0
2014-Sep-14 07:33N 39°15' W 076°34'0 0.0
2014-Sep-14 06:33N 39°15' W 076°34'0 0.0
2014-Sep-14 05:33N 39°15' W 076°34'0 0.0
2014-Sep-14 04:33N 39°15' W 076°34'0 0.0
2014-Sep-14 03:33N 39°15' W 076°34'0 0.0
2014-Sep-14 02:33N 39°15' W 076°34'0 0.0
2014-Sep-14 01:33N 39°15' W 076°34'3 0.7
2014-Sep-13 21:34N 39°13' W 076°32'9 9.2
2014-Sep-13 20:33N 39°09' W 076°21'  

Dump ship's entire track history